Main page
METAR-TAF:

METAR-TAF

Airports :

RAF Fairford

Fairford, England

latitude: 51-41N, longitude: 001-47W, elevation: 87 m

Current weather observation

The report was made 31 minutes ago, at 07:21 UTC
Wind 8 kt from the Southwest
Temperature 14°C
Humidity 88%
Pressure 1002 hPa
Overcast at a height of 4700 ft
light rain

METAR: EGVA 180721Z AUTO 23008KT M -RA OVC047 14/12 A2960 RMK AO2 RAB21 SLP026 RVRNO $

Time: 08:52 (07:52 UTC)


TAF: missing

Weather observations and forecasts of more than 4000 airports (METAR and TAF reports).

The available stations are represented by yellow and red dots on the map.

Hover mouse over dot to see the name of the station.

Then click to see weather observations and forecasts.

To change the map : click on the green buttons with a black cross to zoom in, on the green button with a dash to zoom out, or on the green arrows for adjacent maps.


METAR-TAF: